Terminal Aerodrome Forecast
Issued by NWS Upton, NY

Current Version | Previous Version | Text Only | Print | Product List | Glossary On
Versions: 1 2 3 4 5 6 7 8 9 10 11 12 13 14 15 16 17 18 19 20 21 22 23 24 25 26 27 28 29 30 31 32 33 34 35 36 37 38 39 40 41 42 43 44 45 46 47 48 49 50
000
FTUS41 KOKX 131740
TAFJFK
TAF
KJFK 131740Z 1318/1424 18011KT P6SM BKN080
     FM132100 18011KT P6SM BKN050
     FM140000 17008KT P6SM BKN050
     FM140400 18007KT P6SM VCSH BKN040
     FM140900 18007KT 5SM -SHRA BR VCTS BKN040CB
     FM141200 17007KT 5SM -SHRA BR VCTS OVC030CB
     FM141400 16009KT 5SM -SHRA BR BKN015
     FM141800 16010KT P6SM VCSH BKN015=

USA.gov is the U.S. government's official web portal to all federal, state and local government web resources and services.